Time;durP1;ratioP1;P1;durP2;ratioP2;P2;SDS_P1;SDS_P2;PMS_P1;PMS_P2;Temp;Humidity;BMP_temperature;BMP_pressure;BME280_temperature;BME280_humidity;BME280_pressure;Samples;Min_cycle;Max_cycle;Signal;HPM_P1;HPM_P2
2023/10/27 00:00:10;;;;;;;9.48;4.13;;;;;;;10.88;96.78;95873.97;5105631;28;20276;-82
2023/10/27 00:02:38;;;;;;;5.40;4.25;;;;;;;10.83;96.38;95873.09;5108984;28;20293;-81
2023/10/27 00:05:05;;;;;;;7.97;4.10;;;;;;;10.89;97.08;95877.47;5108926;28;20191;-82
2023/10/27 00:07:31;;;;;;;9.73;4.50;;;;;;;10.86;96.69;95873.41;5106046;28;20657;-83
2023/10/27 00:09:58;;;;;;;6.97;4.50;;;;;;;10.75;97.08;95875.19;5112816;28;20232;-82
2023/10/27 00:12:25;;;;;;;6.45;4.13;;;;;;;10.98;96.59;95867.81;5105621;28;20230;-83
2023/10/27 00:14:51;;;;;;;5.40;3.72;;;;;;;11.07;95.57;95863.56;5104722;28;20555;-83
2023/10/27 00:17:19;;;;;;;9.80;4.60;;;;;;;11.03;95.29;95867.88;5106538;28;20210;-82
2023/10/27 00:19:46;;;;;;;5.97;3.15;;;;;;;10.92;96.09;95868.84;5108137;28;20222;-82
2023/10/27 00:22:12;;;;;;;5.43;3.42;;;;;;;10.87;96.20;95874.22;5110397;28;20211;-82
2023/10/27 00:24:39;;;;;;;5.40;3.20;;;;;;;10.81;96.28;95869.81;5108786;28;20208;-81
2023/10/27 00:27:05;;;;;;;6.63;3.70;;;;;;;10.79;96.01;95867.38;5107460;28;20209;-82
2023/10/27 00:29:31;;;;;;;4.18;2.90;;;;;;;10.75;95.88;95867.06;5104335;28;20218;-82
2023/10/27 00:31:58;;;;;;;6.18;3.13;;;;;;;10.80;95.82;95868.19;5108367;28;20198;-82
2023/10/27 00:34:26;;;;;;;4.57;3.10;;;;;;;10.71;96.10;95873.28;5108237;28;20250;-82
2023/10/27 00:36:52;;;;;;;5.68;3.13;;;;;;;10.75;96.53;95867.06;5107441;28;20213;-82
2023/10/27 00:39:19;;;;;;;7.97;3.60;;;;;;;10.76;95.89;95866.00;5103691;28;20203;-83
2023/10/27 00:41:45;;;;;;;5.22;2.80;;;;;;;10.71;95.67;95865.97;5108336;28;20545;-82
2023/10/27 00:44:11;;;;;;;6.32;3.28;;;;;;;10.66;95.07;95868.63;5106743;28;20665;-82
2023/10/27 00:46:39;;;;;;;5.65;2.47;;;;;;;10.59;95.24;95867.19;5100168;28;20561;-82
2023/10/27 00:49:05;;;;;;;3.40;2.13;;;;;;;10.59;95.61;95864.50;5102561;28;20226;-81
2023/10/27 00:51:33;;;;;;;6.22;2.67;;;;;;;10.57;95.58;95869.34;5106601;28;20214;-81
2023/10/27 00:54:00;;;;;;;3.95;2.00;;;;;;;10.48;95.75;95860.88;5107341;28;20229;-81
2023/10/27 00:56:28;;;;;;;6.35;2.50;;;;;;;10.48;95.87;95850.03;5101945;28;20646;-82
2023/10/27 00:58:55;;;;;;;7.13;2.65;;;;;;;10.55;95.01;95852.56;5097430;28;20207;-82
2023/10/27 01:01:22;;;;;;;3.80;2.55;;;;;;;10.54;95.42;95856.31;5106342;28;20682;-83
2023/10/27 01:03:49;;;;;;;5.90;2.40;;;;;;;10.53;95.64;95857.41;5106642;28;20213;-82
2023/10/27 01:06:15;;;;;;;4.45;2.58;;;;;;;10.67;94.48;95854.03;5103571;28;20191;-81
2023/10/27 01:08:43;;;;;;;4.15;2.35;;;;;;;10.58;94.78;95855.56;5106432;28;20198;-81
2023/10/27 01:11:10;;;;;;;3.85;2.40;;;;;;;10.57;95.59;95845.00;5101339;28;20563;-81
2023/10/27 01:13:36;;;;;;;4.60;2.40;;;;;;;10.66;94.21;95851.59;5109558;28;20227;-82
2023/10/27 01:16:03;;;;;;;5.78;2.65;;;;;;;10.55;94.82;95850.66;5107183;28;20190;-81
2023/10/27 01:18:30;;;;;;;6.78;3.20;;;;;;;10.46;94.68;95854.91;5105515;28;20191;-82
2023/10/27 01:20:56;;;;;;;4.50;2.47;;;;;;;10.49;94.52;95846.28;5093926;28;20226;-81
2023/10/27 01:23:24;;;;;;;6.88;3.03;;;;;;;10.43;94.32;95853.50;5107870;28;20191;-82
2023/10/27 01:25:50;;;;;;;4.15;2.15;;;;;;;10.39;94.94;95852.41;5106138;28;20567;-82
2023/10/27 01:28:17;;;;;;;3.65;2.15;;;;;;;10.34;95.64;95846.94;5098205;28;20539;-81
2023/10/27 01:30:43;;;;;;;2.95;1.98;;;;;;;10.42;94.55;95845.66;5101467;28;20229;-82
2023/10/27 01:33:10;;;;;;;4.35;2.33;;;;;;;10.35;93.96;95839.66;5108207;28;20281;-82
2023/10/27 01:35:36;;;;;;;4.45;2.40;;;;;;;10.27;94.25;95840.09;5106031;28;20666;-82
2023/10/27 01:38:03;;;;;;;6.95;2.10;;;;;;;10.34;94.04;95838.84;5108248;28;20216;-82
2023/10/27 01:40:31;;;;;;;7.63;2.90;;;;;;;10.43;94.07;95839.19;5096328;28;20690;-82
2023/10/27 01:42:57;;;;;;;5.03;2.38;;;;;;;10.38;94.43;95833.75;5106388;28;20194;-82
2023/10/27 01:45:24;;;;;;;3.75;1.90;;;;;;;10.36;94.35;95831.28;5104890;28;20195;-81
2023/10/27 01:47:50;;;;;;;4.90;2.00;;;;;;;10.32;93.96;95832.06;5106446;28;20217;-81
2023/10/27 01:50:17;;;;;;;4.53;1.95;;;;;;;10.35;93.47;95836.94;5106270;28;20224;-81
2023/10/27 01:52:43;;;;;;;4.03;1.80;;;;;;;10.40;92.58;95815.34;5107053;28;20218;-82
2023/10/27 01:55:10;;;;;;;3.15;1.70;;;;;;;10.54;92.22;95815.75;5106318;28;20199;-82
2023/10/27 01:57:37;;;;;;;4.45;2.08;;;;;;;10.31;92.69;95822.31;5101593;28;20213;-83
2023/10/27 02:00:04;;;;;;;2.85;1.65;;;;;;;10.25;92.81;95824.13;5102347;28;20225;-82
2023/10/27 02:02:31;;;;;;;3.08;1.80;;;;;;;10.33;92.56;95815.56;5102385;28;20198;-82
2023/10/27 02:04:57;;;;;;;3.38;1.70;;;;;;;10.25;93.54;95821.44;5104997;28;20213;-82
2023/10/27 02:07:24;;;;;;;3.58;1.60;;;;;;;10.30;93.79;95820.69;5104187;28;20201;-82
2023/10/27 02:09:51;;;;;;;2.85;1.98;;;;;;;10.29;93.15;95825.25;5110028;28;20229;-81
2023/10/27 02:12:17;;;;;;;4.40;2.40;;;;;;;10.22;93.04;95816.53;5108951;28;20302;-82
2023/10/27 02:14:46;;;;;;;5.53;2.60;;;;;;;10.24;93.46;95819.00;5100855;28;20206;-82
2023/10/27 02:17:13;;;;;;;3.85;2.15;;;;;;;10.18;93.94;95818.09;5098168;28;20233;-82
2023/10/27 02:19:39;;;;;;;3.70;2.20;;;;;;;10.14;94.46;95810.72;5106463;28;20268;-81
2023/10/27 02:22:06;;;;;;;4.32;2.15;;;;;;;10.15;94.43;95806.97;5107272;28;20206;-81
2023/10/27 02:24:32;;;;;;;3.63;2.42;;;;;;;10.23;94.23;95815.47;5102435;28;20205;-82
2023/10/27 02:26:59;;;;;;;4.22;2.05;;;;;;;10.25;94.00;95813.31;5107040;28;20597;-81
2023/10/27 02:29:26;;;;;;;5.03;2.55;;;;;;;10.13;94.76;95811.81;5106748;28;20222;-81
2023/10/27 02:31:53;;;;;;;2.22;2.00;;;;;;;10.09;95.01;95809.59;5102698;28;20202;-82
2023/10/27 02:34:20;;;;;;;4.25;2.20;;;;;;;10.09;95.24;95815.00;5106837;28;20233;-81
2023/10/27 02:36:46;;;;;;;6.78;2.60;;;;;;;10.07;95.36;95813.66;5106335;28;20195;-81
2023/10/27 02:39:13;;;;;;;4.93;2.60;;;;;;;10.07;95.58;95806.34;5108974;28;20257;-81
2023/10/27 02:41:39;;;;;;;5.70;2.13;;;;;;;9.97;95.83;95802.72;5102073;28;20216;-81
2023/10/27 02:44:06;;;;;;;3.55;2.17;;;;;;;10.02;95.66;95806.31;5102719;28;20534;-81
2023/10/27 02:46:33;;;;;;;4.40;2.40;;;;;;;9.91;96.36;95809.94;5105192;28;20198;-81
2023/10/27 02:49:02;;;;;;;6.70;2.55;;;;;;;9.78;96.79;95797.63;5098914;28;20202;-81
2023/10/27 02:51:29;;;;;;;5.60;2.70;;;;;;;9.91;96.24;95807.25;5107198;28;20198;-81
2023/10/27 02:53:56;;;;;;;6.95;2.30;;;;;;;9.80;97.01;95810.91;5105423;28;20229;-81
2023/10/27 02:56:22;;;;;;;4.25;2.80;;;;;;;9.90;96.23;95813.72;5107075;28;20198;-82
2023/10/27 02:58:49;;;;;;;5.07;2.40;;;;;;;9.98;96.60;95799.78;5104706;28;20199;-81
2023/10/27 03:01:15;;;;;;;4.80;2.80;;;;;;;9.84;96.91;95790.41;5105578;28;20766;-81
2023/10/27 03:03:42;;;;;;;3.83;2.13;;;;;;;10.10;95.71;95800.44;5108761;28;20205;-82
2023/10/27 03:06:11;;;;;;;2.78;2.25;;;;;;;10.10;95.85;95792.31;5101932;28;20614;-81
2023/10/27 03:08:39;;;;;;;4.88;2.72;;;;;;;10.11;95.51;95788.53;5108309;28;20604;-81
2023/10/27 03:11:05;;;;;;;4.93;2.83;;;;;;;10.20;95.00;95796.22;5110212;28;20240;-81
2023/10/27 03:13:32;;;;;;;4.72;2.47;;;;;;;10.14;95.29;95797.22;5110681;28;20232;-81
2023/10/27 03:15:59;;;;;;;4.78;2.28;;;;;;;10.11;95.14;95796.66;5102570;28;20606;-82
2023/10/27 03:18:25;;;;;;;5.22;2.83;;;;;;;10.23;94.97;95793.03;5108848;28;20210;-82
2023/10/27 03:20:56;;;;;;;3.83;2.58;;;;;;;10.16;95.34;95797.78;5108917;28;20249;-82
2023/10/27 03:23:23;;;;;;;3.67;2.33;;;;;;;10.14;95.27;95789.09;5110995;28;20205;-81
2023/10/27 03:25:50;;;;;;;3.35;2.60;;;;;;;10.05;95.56;95800.41;5102953;28;20195;-81
2023/10/27 03:28:16;;;;;;;5.03;3.05;;;;;;;10.01;95.67;95791.16;5110525;28;20297;-81
2023/10/27 03:30:43;;;;;;;5.25;3.10;;;;;;;10.10;95.68;95795.03;5106612;28;20229;-81
2023/10/27 03:33:09;;;;;;;6.07;2.65;;;;;;;10.20;95.11;95794.34;5110877;28;20215;-81
2023/10/27 03:35:37;;;;;;;5.78;2.65;;;;;;;10.18;95.36;95792.94;5105039;28;20277;-82
2023/10/27 03:38:04;;;;;;;4.47;2.97;;;;;;;10.19;95.60;95794.56;5110233;28;20270;-81
2023/10/27 03:40:32;;;;;;;4.38;3.28;;;;;;;10.01;95.97;95788.47;5104898;28;20232;-82
2023/10/27 03:42:58;;;;;;;6.03;3.03;;;;;;;9.96;97.16;95793.81;5102930;28;20208;-82
2023/10/27 03:45:25;;;;;;;4.32;3.75;;;;;;;9.94;96.79;95787.84;5106543;28;20213;-81
2023/10/27 03:47:51;;;;;;;4.10;2.70;;;;;;;10.15;96.81;95796.16;5107694;28;20667;-83
2023/10/27 03:50:18;;;;;;;5.95;3.25;;;;;;;10.20;95.68;95774.59;5103023;28;20218;-80
2023/10/27 03:52:44;;;;;;;3.55;2.70;;;;;;;10.15;95.91;95777.22;5108024;28;20197;-81
2023/10/27 03:55:11;;;;;;;6.43;3.70;;;;;;;10.05;96.19;95770.66;5104500;28;20268;-83
2023/10/27 03:57:40;;;;;;;6.60;4.05;;;;;;;9.85;96.75;95762.34;5107933;28;20257;-83
2023/10/27 04:00:08;;;;;;;5.95;4.20;;;;;;;9.83;97.39;95753.66;5099662;28;20233;-83
2023/10/27 04:02:36;;;;;;;6.75;4.20;;;;;;;9.87;97.97;95760.19;5107102;28;20205;-83
2023/10/27 04:05:03;;;;;;;4.82;4.00;;;;;;;9.76;98.25;95755.75;5102599;28;20673;-82
2023/10/27 04:07:30;;;;;;;6.88;4.30;;;;;;;9.83;97.81;95758.25;5106777;28;20198;-83
2023/10/27 04:09:56;;;;;;;5.82;4.10;;;;;;;9.76;98.08;95753.84;5105194;28;20231;-82
2023/10/27 04:12:23;;;;;;;4.90;3.90;;;;;;;9.72;98.07;95752.75;5103985;28;20550;-82
2023/10/27 04:14:51;;;;;;;5.38;4.68;;;;;;;9.60;98.54;95760.16;5108338;28;20223;-82
2023/10/27 04:17:17;;;;;;;5.15;3.60;;;;;;;9.71;98.90;95766.50;5107615;28;20195;-82
2023/10/27 04:19:44;;;;;;;5.38;4.20;;;;;;;9.27;99.48;95720.63;5099234;28;20593;-85
2023/10/27 04:22:11;;;;;;;6.05;4.07;;;;;;;9.58;99.33;95769.59;5082088;28;20197;-86
2023/10/27 04:24:37;;;;;;;7.05;4.90;;;;;;;9.56;99.23;95769.03;5104604;28;20205;-84
2023/10/27 04:27:04;;;;;;;5.10;4.30;;;;;;;9.59;99.39;95769.34;5104261;28;20647;-88
2023/10/27 04:29:31;;;;;;;5.75;4.43;;;;;;;9.60;99.16;95756.66;5107685;28;20219;-84
2023/10/27 04:31:58;;;;;;;4.95;4.50;;;;;;;9.63;99.39;95772.34;5102203;28;20219;-85
2023/10/27 04:34:25;;;;;;;6.40;4.60;;;;;;;9.58;99.46;95781.19;5103616;28;20226;-83
2023/10/27 04:36:54;;;;;;;7.47;4.90;;;;;;;9.59;99.42;95776.63;5101730;28;20289;-82
2023/10/27 04:39:21;;;;;;;4.78;4.05;;;;;;;9.74;98.99;95779.50;5102623;28;20230;-87
2023/10/27 04:41:48;;;;;;;5.55;4.63;;;;;;;9.62;98.90;95776.94;5105273;28;20203;-78
2023/10/27 04:44:16;;;;;;;6.72;4.38;;;;;;;9.85;98.58;95772.31;5104485;28;20213;-82
2023/10/27 04:46:43;;;;;;;7.72;4.25;;;;;;;9.92;97.77;95779.16;5099470;28;20198;-82
2023/10/27 04:49:11;;;;;;;5.65;3.20;;;;;;;9.98;97.58;95778.16;5093987;28;20229;-82
2023/10/27 04:51:37;;;;;;;5.15;4.63;;;;;;;10.08;96.64;95780.94;5094180;28;20204;-82
2023/10/27 04:54:04;;;;;;;6.05;3.75;;;;;;;9.93;97.04;95775.41;5102546;28;20225;-83
2023/10/27 04:56:30;;;;;;;5.82;3.45;;;;;;;10.06;96.85;95783.13;5096046;28;20201;-82
2023/10/27 04:58:57;;;;;;;3.97;3.58;;;;;;;9.89;97.60;95784.25;5102102;28;20223;-82
2023/10/27 05:01:25;;;;;;;3.90;3.20;;;;;;;9.87;97.48;95784.50;5105496;28;20205;-82
2023/10/27 05:03:51;;;;;;;3.97;3.17;;;;;;;9.92;97.55;95781.88;5104453;28;20213;-82
2023/10/27 05:06:19;;;;;;;7.35;4.40;;;;;;;9.81;97.42;95774.72;5101979;28;20199;-82
2023/10/27 05:08:46;;;;;;;3.22;2.92;;;;;;;9.81;98.09;95785.50;5105635;28;20225;-82
2023/10/27 05:11:13;;;;;;;5.53;3.60;;;;;;;9.89;97.64;95776.97;5108688;28;20219;-82
2023/10/27 05:13:39;;;;;;;5.18;3.72;;;;;;;9.94;97.01;95773.50;5109049;28;20234;-82
2023/10/27 05:16:07;;;;;;;4.05;3.35;;;;;;;10.00;96.55;95781.41;5101008;28;20282;-82
2023/10/27 05:18:33;;;;;;;4.03;3.70;;;;;;;9.98;96.42;95786.25;5106260;28;20243;-83
2023/10/27 05:21:00;;;;;;;5.75;3.35;;;;;;;10.05;96.45;95789.59;5106902;28;20274;-85
2023/10/27 05:23:27;;;;;;;3.60;3.30;;;;;;;9.92;97.44;95789.16;5108727;28;20552;-85
2023/10/27 05:25:54;;;;;;;3.80;3.40;;;;;;;10.17;96.35;95792.13;5100551;28;20436;-85
2023/10/27 05:28:20;;;;;;;5.88;3.70;;;;;;;10.05;96.71;95792.28;5108236;28;20286;-85
2023/10/27 05:30:50;;;;;;;5.38;4.00;;;;;;;10.02;96.64;95792.78;5106339;28;20569;-84
2023/10/27 05:33:16;;;;;;;7.00;3.58;;;;;;;10.05;96.80;95794.19;5106683;28;20201;-84
2023/10/27 05:35:43;;;;;;;4.40;3.70;;;;;;;10.06;96.78;95798.50;5107760;28;20256;-85
2023/10/27 05:38:09;;;;;;;4.68;4.05;;;;;;;9.94;97.42;95785.13;5110743;28;20934;-83
2023/10/27 05:40:37;;;;;;;6.05;4.05;;;;;;;10.07;96.97;95800.16;5111136;28;20226;-84
2023/10/27 05:43:03;;;;;;;8.13;4.10;;;;;;;10.08;96.82;95801.75;5108266;28;20206;-84
2023/10/27 05:45:30;;;;;;;9.73;4.68;;;;;;;10.08;96.44;95813.38;5098089;28;20202;-84
2023/10/27 05:47:56;;;;;;;6.72;4.45;;;;;;;10.06;96.38;95815.53;5098083;28;20196;-86
2023/10/27 05:50:23;;;;;;;5.38;4.85;;;;;;;9.99;96.92;95823.03;5094798;28;20217;-86
2023/10/27 05:52:49;;;;;;;6.00;5.00;;;;;;;9.91;97.34;95825.34;5102174;28;20217;-86
2023/10/27 05:55:16;;;;;;;5.97;4.80;;;;;;;9.83;97.58;95818.50;5095093;28;20214;-86
2023/10/27 05:57:44;;;;;;;7.63;4.82;;;;;;;10.06;97.08;95829.06;5095488;28;20203;-86
2023/10/27 06:00:11;;;;;;;4.38;3.72;;;;;;;9.89;97.97;95828.31;5100385;28;20226;-87
2023/10/27 06:02:38;;;;;;;4.80;3.70;;;;;;;9.89;98.91;95820.19;5105369;28;20229;-87
2023/10/27 06:05:05;;;;;;;7.60;4.90;;;;;;;9.81;98.69;95823.34;5103262;28;20202;-86
2023/10/27 06:07:32;;;;;;;5.32;3.70;;;;;;;9.82;99.16;95824.97;5102230;28;20281;-86
2023/10/27 06:09:58;;;;;;;4.50;3.97;;;;;;;9.93;98.76;95832.13;5098089;28;20267;-85
2023/10/27 06:12:25;;;;;;;4.55;3.40;;;;;;;9.82;99.18;95841.19;5103037;28;20240;-85
2023/10/27 06:14:53;;;;;;;7.13;4.95;;;;;;;9.86;98.81;95836.91;5097693;28;20221;-85
2023/10/27 06:17:19;;;;;;;6.45;4.90;;;;;;;9.91;98.66;95839.69;5103747;28;20205;-84
2023/10/27 06:19:45;;;;;;;4.97;4.45;;;;;;;9.78;99.12;95848.16;5104716;28;20226;-84
2023/10/27 06:22:12;;;;;;;3.90;3.50;;;;;;;9.66;100.00;95858.28;5103598;28;20207;-84
2023/10/27 06:24:39;;;;;;;5.00;4.03;;;;;;;9.61;100.00;95863.59;5106512;28;20213;-83
2023/10/27 06:27:06;;;;;;;7.45;5.63;;;;;;;9.71;99.93;95871.84;5105710;28;20201;-84
2023/10/27 06:29:33;;;;;;;4.72;4.10;;;;;;;9.80;100.00;95870.31;5107381;28;20792;-83
2023/10/27 06:32:03;;;;;;;6.43;5.45;;;;;;;9.81;100.00;95882.75;5107533;28;20244;-83
2023/10/27 06:34:29;;;;;;;10.23;6.43;;;;;;;9.56;100.00;95875.16;5099592;28;20318;-83
2023/10/27 06:36:56;;;;;;;7.25;6.25;;;;;;;9.69;100.00;95882.09;5102318;28;20232;-83
2023/10/27 06:39:23;;;;;;;6.70;6.00;;;;;;;9.70;100.00;95878.31;5090428;28;20257;-83
2023/10/27 06:41:50;;;;;;;10.07;7.10;;;;;;;9.60;100.00;95876.28;5109365;28;20205;-81
2023/10/27 06:44:17;;;;;;;6.82;5.10;;;;;;;9.72;100.00;95882.41;5110284;28;20205;-83
2023/10/27 06:46:44;;;;;;;5.15;4.65;;;;;;;9.70;100.00;95891.81;5109802;28;20208;-83
2023/10/27 06:49:13;;;;;;;5.68;4.75;;;;;;;9.82;100.00;95892.50;5106464;28;20316;-82
2023/10/27 06:51:39;;;;;;;6.18;4.60;;;;;;;9.93;100.00;95888.88;5103896;28;20195;-81
2023/10/27 06:54:06;;;;;;;4.60;4.20;;;;;;;9.94;100.00;95892.41;5107160;28;20200;-81
2023/10/27 06:56:33;;;;;;;3.30;3.00;;;;;;;9.81;99.83;95893.56;5104226;28;20228;-82
2023/10/27 06:58:59;;;;;;;2.65;2.42;;;;;;;10.00;98.84;95892.22;5108636;28;20226;-77
2023/10/27 07:01:25;;;;;;;3.47;2.47;;;;;;;10.01;98.24;95893.84;5101504;28;20204;-80
2023/10/27 07:03:52;;;;;;;1.90;1.75;;;;;;;9.94;97.64;95897.81;5088666;28;20750;-81
2023/10/27 07:06:20;;;;;;;4.10;1.92;;;;;;;9.92;98.56;95895.34;5110424;28;20205;-81
2023/10/27 07:08:46;;;;;;;1.90;1.55;;;;;;;9.95;97.62;95900.25;5108430;28;20222;-81
2023/10/27 07:11:14;;;;;;;1.80;1.70;;;;;;;10.22;95.68;95900.34;5111549;28;20196;-81
2023/10/27 07:13:40;;;;;;;2.83;1.70;;;;;;;10.26;94.32;95909.56;5107280;28;20396;-81
2023/10/27 07:16:07;;;;;;;1.50;1.40;;;;;;;10.21;94.97;95892.47;5111923;28;20234;-80
2023/10/27 07:18:33;;;;;;;1.40;1.30;;;;;;;10.33;93.00;95918.31;5107052;28;20724;-81
2023/10/27 07:20:59;;;;;;;1.55;0.90;;;;;;;10.31;92.15;95914.22;5110635;28;20211;-81
2023/10/27 07:23:28;;;;;;;1.45;1.20;;;;;;;10.36;92.44;95917.00;5110058;28;20205;-81
2023/10/27 07:25:55;;;;;;;1.92;1.00;;;;;;;10.36;91.82;95915.13;5111026;28;20334;-81
2023/10/27 07:28:21;;;;;;;1.98;1.10;;;;;;;10.56;93.20;95910.97;5109512;28;20206;-81
2023/10/27 07:30:47;;;;;;;1.67;1.30;;;;;;;10.54;92.78;95903.13;5110528;28;20194;-81
2023/10/27 07:33:14;;;;;;;1.25;1.10;;;;;;;10.52;93.08;95916.09;5110948;28;20199;-82
2023/10/27 07:35:41;;;;;;;2.00;1.35;;;;;;;10.61;92.40;95913.75;5106669;28;20246;-81
2023/10/27 07:38:07;;;;;;;1.60;1.10;;;;;;;10.67;92.76;95918.16;5105595;28;20207;-81
2023/10/27 07:40:41;;;;;;;1.70;1.15;;;;;;;10.87;91.85;95929.16;5109307;28;20260;-81
2023/10/27 07:43:08;;;;;;;1.65;1.42;;;;;;;10.80;91.74;95933.13;5109705;28;20195;-81
2023/10/27 07:45:34;;;;;;;1.58;0.90;;;;;;;10.90;91.14;95925.94;5109305;28;20203;-82
2023/10/27 07:48:02;;;;;;;1.35;1.25;;;;;;;11.08;91.43;95933.66;5103059;28;20576;-81
2023/10/27 07:50:29;;;;;;;1.30;1.20;;;;;;;11.21;90.92;95928.91;5106842;28;20579;-81
2023/10/27 07:52:56;;;;;;;1.83;1.23;;;;;;;11.28;90.71;95926.81;5100653;28;20269;-81
2023/10/27 07:55:22;;;;;;;1.85;1.13;;;;;;;11.37;89.65;95934.19;5092254;28;20570;-82
2023/10/27 07:57:50;;;;;;;1.90;1.20;;;;;;;11.19;90.41;95942.72;5100461;28;20285;-81
2023/10/27 08:00:17;;;;;;;1.00;0.90;;;;;;;11.10;89.27;95949.66;5104024;28;20228;-81
2023/10/27 08:02:43;;;;;;;1.08;0.98;;;;;;;11.06;90.58;95953.94;5105833;28;20230;-81
2023/10/27 08:05:10;;;;;;;2.15;1.05;;;;;;;11.09;89.71;95959.66;5107897;28;20405;-81
2023/10/27 08:07:36;;;;;;;0.98;0.90;;;;;;;11.14;88.79;95961.63;5102865;28;20209;-81
2023/10/27 08:10:07;;;;;;;1.35;0.90;;;;;;;11.30;87.41;95970.69;5102206;28;20214;-80
2023/10/27 08:12:34;;;;;;;2.22;0.90;;;;;;;11.27;86.78;95977.44;5107445;28;20199;-81
2023/10/27 08:15:04;;;;;;;0.80;0.77;;;;;;;11.27;86.01;95977.44;5110296;28;20233;-81
2023/10/27 08:17:31;;;;;;;1.15;0.80;;;;;;;11.15;84.44;95978.69;5099375;28;20199;-80
2023/10/27 08:19:58;;;;;;;1.33;0.70;;;;;;;11.27;84.25;95985.56;5103368;28;20211;-80
2023/10/27 08:22:24;;;;;;;0.70;0.70;;;;;;;11.40;84.82;95987.03;5090923;28;20210;-81
2023/10/27 08:24:51;;;;;;;0.82;0.82;;;;;;;11.42;85.13;95991.09;5080606;28;20191;-80
2023/10/27 08:27:18;;;;;;;0.85;0.70;;;;;;;11.42;84.75;96003.84;5108193;28;20198;-81
2023/10/27 08:29:44;;;;;;;1.13;0.70;;;;;;;11.33;84.64;96003.50;5104702;28;20318;-81
2023/10/27 08:32:13;;;;;;;1.60;0.70;;;;;;;11.28;84.00;96017.00;5104013;28;20203;-80
2023/10/27 08:34:40;;;;;;;0.93;0.65;;;;;;;11.24;83.34;96015.88;5101752;28;20259;-80
2023/10/27 08:37:06;;;;;;;0.90;0.60;;;;;;;11.21;83.75;96015.56;5108257;28;20199;-80
2023/10/27 08:39:33;;;;;;;1.15;0.60;;;;;;;11.17;84.32;96014.44;5106670;28;20237;-79
2023/10/27 08:42:00;;;;;;;1.20;0.70;;;;;;;11.39;82.15;96021.41;5097943;28;20214;-80
2023/10/27 08:44:27;;;;;;;1.00;0.60;;;;;;;11.32;82.20;96017.31;5105096;28;20654;-80
2023/10/27 08:46:53;;;;;;;0.75;0.73;;;;;;;11.14;82.40;96025.78;5093830;28;20582;-79
2023/10/27 08:49:21;;;;;;;1.85;0.70;;;;;;;11.16;82.97;96024.44;5097257;28;20242;-80
2023/10/27 08:51:48;;;;;;;0.60;0.52;;;;;;;11.13;84.08;96027.66;5096352;28;20197;-80
2023/10/27 08:54:15;;;;;;;0.70;0.50;;;;;;;11.07;83.27;96028.69;5104854;28;20205;-81
2023/10/27 08:56:42;;;;;;;1.00;0.63;;;;;;;11.22;82.79;96034.25;5105313;28;20230;-81
2023/10/27 08:59:10;;;;;;;1.10;0.70;;;;;;;11.20;83.98;96024.75;5103010;28;20221;-82
2023/10/27 09:01:37;;;;;;;0.60;0.50;;;;;;;11.23;83.12;96022.34;5091107;28;20313;-80
2023/10/27 09:04:07;;;;;;;0.60;0.50;;;;;;;11.22;81.56;96039.69;5104633;28;21085;-79
2023/10/27 09:06:35;;;;;;;0.70;0.60;;;;;;;11.32;82.04;96039.78;5105707;28;20206;-79
2023/10/27 09:09:02;;;;;;;0.90;0.70;;;;;;;11.39;81.50;96043.09;5107387;28;20253;-81
2023/10/27 09:11:29;;;;;;;0.90;0.50;;;;;;;11.39;81.42;96051.19;5102278;28;20203;-79
2023/10/27 09:13:55;;;;;;;0.80;0.65;;;;;;;11.33;81.24;96044.13;5096355;28;20195;-80
2023/10/27 09:16:25;;;;;;;0.70;0.60;;;;;;;11.41;81.94;96053.66;5092014;28;20233;-81
2023/10/27 09:18:52;;;;;;;0.75;0.60;;;;;;;10.93;82.43;96020.16;5089554;28;20225;-81
2023/10/27 09:21:30;;;;;;;0.57;0.50;;;;;;;11.32;82.32;96071.47;5101678;28;20191;-81
2023/10/27 09:23:58;;;;;;;0.85;0.50;;;;;;;11.24;83.01;96064.59;5090717;28;20650;-81
2023/10/27 09:26:28;;;;;;;1.17;0.70;;;;;;;11.38;81.75;96076.66;5101687;28;20207;-80
2023/10/27 09:29:00;;;;;;;0.90;0.50;;;;;;;11.31;82.74;96070.66;5100792;28;20249;-80
2023/10/27 09:31:33;;;;;;;0.85;0.60;;;;;;;11.57;82.15;96073.59;5094677;28;20219;-80
2023/10/27 09:34:16;;;;;;;2.03;0.80;;;;;;;11.53;82.57;96084.13;5099639;28;20198;-80
2023/10/27 09:36:44;;;;;;;0.80;0.63;;;;;;;11.43;83.42;96081.31;5086958;28;20223;-81
2023/10/27 09:39:16;;;;;;;0.95;0.80;;;;;;;11.50;84.68;96083.81;5099805;28;20215;-81
2023/10/27 09:41:45;;;;;;;1.83;0.70;;;;;;;11.57;85.26;96092.56;5099927;28;20220;-80
2023/10/27 09:44:15;;;;;;;0.95;0.80;;;;;;;11.36;86.32;96089.66;5103057;28;20218;-81
2023/10/27 09:46:45;;;;;;;1.38;0.60;;;;;;;11.34;84.51;96082.88;5099682;28;20294;-83
2023/10/27 09:49:12;;;;;;;0.95;0.60;;;;;;;11.30;86.87;96093.38;5100545;28;20249;-81
2023/10/27 09:51:41;;;;;;;1.13;0.70;;;;;;;11.56;85.93;96099.88;5102394;28;20559;-79
2023/10/27 09:54:08;;;;;;;1.30;0.70;;;;;;;11.38;87.16;96105.63;5103197;28;20198;-81
2023/10/27 09:56:36;;;;;;;1.10;0.70;;;;;;;11.32;87.90;96103.97;5097776;28;20234;-81
2023/10/27 09:59:02;;;;;;;2.08;0.88;;;;;;;11.18;88.74;96108.13;5105976;28;20211;-81
2023/10/27 10:01:29;;;;;;;0.60;0.60;;;;;;;11.03;89.21;96116.91;5105705;28;20199;-84
2023/10/27 10:03:55;;;;;;;1.67;0.63;;;;;;;10.90;91.04;96115.38;5099245;28;20199;-82
2023/10/27 10:06:23;;;;;;;1.60;1.15;;;;;;;10.70;93.34;96123.25;5097816;28;20202;-84
2023/10/27 10:09:10;;;;;;;1.05;0.70;;;;;;;10.72;93.59;96129.22;5104476;28;20211;-82
2023/10/27 10:11:54;;;;;;;1.15;0.60;;;;;;;10.82;93.36;96133.94;5104281;28;20206;-82
2023/10/27 10:14:57;;;;;;;0.73;0.70;;;;;;;11.08;92.35;96130.47;5100244;28;20202;-81
2023/10/27 10:17:36;;;;;;;1.00;0.90;;;;;;;11.55;92.17;96135.34;5097594;28;20224;-83
2023/10/27 10:20:03;;;;;;;1.55;0.70;;;;;;;12.21;89.29;96127.84;5104998;28;20298;-82
2023/10/27 10:22:52;;;;;;;1.00;0.70;;;;;;;12.14;86.77;96125.34;5110735;28;20208;-83
2023/10/27 10:25:31;;;;;;;0.80;0.60;;;;;;;11.88;89.11;96129.75;5107579;28;20261;-82
2023/10/27 10:28:25;;;;;;;0.80;0.80;;;;;;;11.56;88.67;96147.81;5108650;28;20281;-83
2023/10/27 10:31:24;;;;;;;1.40;0.80;;;;;;;11.24;92.08;96135.00;5110394;28;20202;-81
2023/10/27 10:33:52;;;;;;;1.58;1.48;;;;;;;11.36;90.98;96141.13;5108587;28;20271;-81
2023/10/27 10:36:27;;;;;;;1.73;0.90;;;;;;;11.39;91.03;96154.13;5105828;28;20230;-81
2023/10/27 10:38:57;;;;;;;1.20;1.10;;;;;;;11.33;91.10;96144.34;5105170;28;20233;-81
2023/10/27 10:41:58;;;;;;;1.00;0.80;;;;;;;11.41;91.41;96148.47;5107825;28;20207;-79
2023/10/27 10:44:27;;;;;;;1.42;1.00;;;;;;;11.39;91.69;96135.16;5098238;28;20195;-82
2023/10/27 10:46:54;;;;;;;1.85;0.80;;;;;;;11.59;90.08;96144.59;5104780;28;20211;-83
2023/10/27 10:49:24;;;;;;;1.83;0.80;;;;;;;11.83;87.41;96126.97;5099820;28;20223;-84
2023/10/27 10:51:53;;;;;;;0.70;0.60;;;;;;;11.85;85.67;96129.44;5091228;28;20206;-83
2023/10/27 10:54:21;;;;;;;1.15;0.73;;;;;;;12.10;84.93;96126.94;5093409;28;20263;-84
2023/10/27 10:56:48;;;;;;;2.00;0.80;;;;;;;12.25;84.44;96123.53;5100388;28;20242;-84
2023/10/27 10:59:25;;;;;;;0.85;0.80;;;;;;;12.15;83.56;96128.88;5097935;28;20863;-83
2023/10/27 11:01:55;;;;;;;0.80;0.70;;;;;;;12.45;81.33;96123.66;5102243;28;20274;-84
2023/10/27 11:04:28;;;;;;;0.70;0.60;;;;;;;12.64;80.01;96124.91;5107011;28;20225;-83
2023/10/27 11:06:58;;;;;;;2.35;0.75;;;;;;;13.18;78.20;96111.06;5109511;28;20710;-83
2023/10/27 11:09:24;;;;;;;1.48;0.77;;;;;;;13.02;78.42;96112.84;5106546;28;20225;-83
2023/10/27 11:11:51;;;;;;;2.10;0.73;;;;;;;13.27;78.00;96106.75;5110458;28;20216;-83
2023/10/27 11:14:17;;;;;;;1.05;0.90;;;;;;;13.36;77.74;96113.28;5106892;28;20489;-83
2023/10/27 11:16:55;;;;;;;2.33;0.97;;;;;;;13.46;76.70;96101.63;5106410;28;20707;-82
2023/10/27 11:19:21;;;;;;;1.60;0.93;;;;;;;13.49;72.76;96103.00;5088055;28;20499;-82
2023/10/27 11:21:52;;;;;;;3.00;0.87;;;;;;;13.58;73.68;96109.56;5106777;28;20460;-81
2023/10/27 11:24:18;;;;;;;1.33;0.80;;;;;;;13.41;73.31;96105.16;5093557;28;20527;-81
2023/10/27 11:26:45;;;;;;;3.73;1.20;;;;;;;13.79;71.40;96100.34;5103672;28;20545;-81
2023/10/27 11:29:12;;;;;;;2.10;0.80;;;;;;;14.25;71.08;96097.63;5096173;28;20479;-81
2023/10/27 11:31:41;;;;;;;3.03;1.07;;;;;;;14.29;69.06;96104.16;5104438;28;20446;-81
2023/10/27 11:34:09;;;;;;;2.03;1.10;;;;;;;14.47;67.13;96091.91;5107309;28;20458;-81
2023/10/27 11:36:38;;;;;;;2.60;1.03;;;;;;;15.19;63.41;96093.34;5106760;28;20487;-81